createdAt,value
2023-04-22T00:02:23.567Z,13.07
2023-04-22T00:05:15.907Z,11.32
2023-04-22T00:08:07.258Z,14.30
2023-04-22T00:10:56.824Z,12.73
2023-04-22T00:13:46.203Z,14.68
2023-04-22T00:16:35.106Z,11.00
2023-04-22T00:19:25.753Z,12.10
2023-04-22T00:22:14.801Z,15.68
2023-04-22T00:25:03.714Z,12.18
2023-04-22T00:27:53.264Z,15.00
2023-04-22T00:30:41.956Z,12.45
2023-04-22T00:33:31.092Z,14.35
2023-04-22T00:36:21.296Z,11.20
2023-04-22T00:39:14.235Z,10.68
2023-04-22T00:42:04.029Z,12.00
2023-04-22T00:44:53.875Z,14.65
2023-04-22T00:47:43.377Z,12.90
2023-04-22T00:50:32.211Z,19.40
2023-04-22T00:53:22.582Z,11.95
2023-04-22T00:56:12.757Z,11.65
2023-04-22T00:59:01.912Z,12.43
2023-04-22T01:01:52.390Z,14.95
2023-04-22T01:04:41.234Z,9.35
2023-04-22T01:07:30.240Z,9.82
2023-04-22T01:10:20.470Z,12.70
2023-04-22T01:13:09.193Z,11.55
2023-04-22T01:15:57.942Z,9.50
2023-04-22T01:18:46.828Z,12.15
2023-04-22T01:21:37.662Z,14.90
2023-04-22T01:24:28.082Z,10.38
2023-04-22T01:27:16.999Z,11.52
2023-04-22T01:30:08.196Z,9.75
2023-04-22T01:32:57.109Z,9.82
2023-04-22T01:35:46.061Z,16.23
2023-04-22T01:38:36.149Z,11.98
2023-04-22T01:41:27.634Z,10.43
2023-04-22T01:44:16.524Z,8.68
2023-04-22T01:47:06.097Z,11.10
2023-04-22T01:49:56.462Z,13.30
2023-04-22T01:52:45.065Z,10.75
2023-04-22T01:55:36.218Z,12.32
2023-04-22T01:58:26.247Z,12.88
2023-04-22T02:01:15.599Z,11.52
2023-04-22T02:04:07.739Z,9.35
2023-04-22T02:06:56.421Z,11.68
2023-04-22T02:09:45.601Z,10.75
2023-04-22T02:12:34.270Z,9.60
2023-04-22T02:15:24.655Z,9.00
2023-04-22T02:18:18.074Z,8.93
2023-04-22T02:21:06.944Z,12.15
2023-04-22T02:23:55.982Z,9.07
2023-04-22T02:26:44.586Z,8.98
2023-04-22T02:29:33.426Z,15.13
2023-04-22T02:32:23.626Z,11.93
2023-04-22T02:35:12.860Z,9.65
2023-04-22T02:38:01.573Z,12.52
2023-04-22T02:40:50.788Z,9.45
2023-04-22T02:43:39.660Z,11.65
2023-04-22T02:46:28.524Z,12.93
2023-04-22T02:49:23.546Z,12.27
2023-04-22T02:52:12.346Z,10.32
2023-04-22T02:55:01.158Z,10.57
2023-04-22T02:57:49.820Z,13.43
2023-04-22T03:00:38.572Z,9.85
2023-04-22T03:03:27.896Z,10.40
2023-04-22T03:06:18.509Z,12.43
2023-04-22T03:09:11.922Z,9.50
2023-04-22T03:12:00.722Z,12.73
2023-04-22T03:14:49.505Z,10.90
2023-04-22T03:17:38.758Z,9.75
2023-04-22T03:20:31.431Z,11.65
2023-04-22T03:23:21.489Z,12.90
2023-04-22T03:26:10.635Z,10.50
2023-04-22T03:29:00.632Z,11.32
2023-04-22T03:31:49.419Z,10.55
2023-04-22T03:34:38.285Z,13.63
2023-04-22T03:37:29.903Z,12.05
2023-04-22T03:40:20.506Z,8.93
2023-04-22T03:43:10.300Z,11.02
2023-04-22T03:46:00.747Z,11.43
2023-04-22T03:48:51.882Z,9.82
2023-04-22T03:51:52.180Z,13.50
2023-04-22T03:54:45.092Z,13.38
2023-04-22T03:57:35.374Z,8.93
2023-04-22T04:00:24.412Z,14.63
2023-04-22T04:03:29.539Z,10.18
2023-04-22T04:06:20.075Z,11.02
2023-04-22T04:09:09.034Z,11.00
2023-04-22T04:11:58.248Z,11.27
2023-04-22T04:14:52.374Z,10.63
2023-04-22T04:17:42.831Z,11.65
2023-04-22T04:20:32.180Z,11.10
2023-04-22T04:23:21.125Z,12.95
2023-04-22T04:26:11.135Z,15.73
2023-04-22T04:29:03.649Z,10.00
2023-04-22T04:31:53.875Z,13.25
2023-04-22T04:34:43.782Z,11.48
2023-04-22T04:37:34.305Z,13.50
2023-04-22T04:40:29.415Z,10.07
2023-04-22T04:43:32.218Z,8.85
2023-04-22T04:46:32.558Z,10.18
2023-04-22T04:49:22.916Z,11.57
2023-04-22T04:52:17.641Z,9.13
2023-04-22T04:55:07.082Z,8.45
2023-04-22T04:57:57.066Z,14.95
2023-04-22T05:00:45.723Z,12.70
2023-04-22T05:03:35.211Z,10.38
2023-04-22T05:06:25.520Z,12.57
2023-04-22T05:09:19.795Z,8.68
2023-04-22T05:12:10.868Z,10.50
2023-04-22T05:14:59.678Z,9.80
2023-04-22T05:17:49.375Z,9.93
2023-04-22T05:20:38.402Z,8.18
2023-04-22T05:23:30.136Z,13.23
2023-04-22T05:26:20.429Z,12.60
2023-04-22T05:29:11.885Z,13.45
2023-04-22T05:32:00.974Z,10.60
2023-04-22T05:34:50.848Z,10.57
2023-04-22T05:37:40.137Z,9.75
2023-04-22T05:40:31.134Z,9.57
2023-04-22T05:43:20.660Z,11.85
2023-04-22T05:46:17.450Z,10.50
2023-04-22T05:49:07.880Z,16.00
2023-04-22T05:52:15.377Z,12.63
2023-04-22T05:55:19.570Z,14.30
2023-04-22T05:58:10.236Z,12.27
2023-04-22T06:01:06.892Z,11.20
2023-04-22T06:04:16.875Z,15.40
2023-04-22T06:07:06.426Z,14.07
2023-04-22T06:10:03.790Z,10.23
2023-04-22T06:12:58.066Z,12.05
2023-04-22T06:15:48.427Z,11.55
2023-04-22T06:18:38.255Z,13.30
2023-04-22T06:21:37.244Z,11.60
2023-04-22T06:24:26.308Z,12.88
2023-04-22T06:27:16.921Z,12.82
2023-04-22T06:30:06.351Z,11.40
2023-04-22T06:33:00.235Z,9.85
2023-04-22T06:35:49.239Z,10.85
2023-04-22T06:38:38.137Z,12.55
2023-04-22T06:41:55.680Z,11.75
2023-04-22T06:45:20.026Z,10.43
2023-04-22T06:48:27.875Z,9.57
2023-04-22T06:51:35.098Z,10.90
2023-04-22T06:54:24.284Z,8.73
2023-04-22T06:57:13.178Z,8.13
2023-04-22T07:00:02.344Z,8.27
2023-04-22T07:02:53.539Z,10.38
2023-04-22T07:05:43.989Z,7.72
2023-04-22T07:08:36.189Z,11.45
2023-04-22T07:11:25.163Z,9.85
2023-04-22T07:14:23.497Z,12.05
2023-04-22T07:17:12.386Z,9.20
2023-04-22T07:20:01.115Z,10.13
2023-04-22T07:22:53.269Z,11.73
2023-04-22T07:25:42.102Z,12.32
2023-04-22T07:28:31.275Z,11.95
2023-04-22T07:31:20.188Z,11.05
2023-04-22T07:34:10.834Z,10.32
2023-04-22T07:36:59.817Z,9.15
2023-04-22T07:39:49.851Z,10.48
2023-04-22T07:42:39.172Z,8.50
2023-04-22T07:45:27.930Z,7.05
2023-04-22T07:48:17.116Z,6.13
2023-04-22T07:51:06.269Z,9.60
2023-04-22T07:53:55.098Z,7.32
2023-04-22T07:56:45.260Z,7.68
2023-04-22T07:59:33.968Z,10.98
2023-04-22T08:02:23.465Z,8.25
2023-04-22T08:05:12.475Z,14.82
2023-04-22T08:08:01.299Z,8.55
2023-04-22T08:10:50.713Z,8.23
2023-04-22T08:13:40.964Z,8.65
2023-04-22T08:16:29.903Z,12.15
2023-04-22T08:19:19.899Z,10.23
2023-04-22T08:22:08.855Z,10.90
2023-04-22T08:25:01.370Z,8.18
2023-04-22T08:27:51.127Z,8.82
2023-04-22T08:30:42.313Z,10.93
2023-04-22T08:33:31.547Z,10.57
2023-04-22T08:36:23.373Z,9.65
2023-04-22T08:39:12.870Z,9.43
2023-04-22T08:42:02.417Z,10.40
2023-04-22T08:44:55.217Z,10.40
2023-04-22T08:47:50.977Z,8.68
2023-04-22T08:50:40.781Z,7.70
2023-04-22T08:53:29.742Z,8.30
2023-04-22T08:56:18.617Z,6.22
2023-04-22T08:59:07.705Z,7.80
2023-04-22T09:01:58.554Z,6.70
2023-04-22T09:04:54.769Z,6.80
2023-04-22T09:07:43.678Z,8.15
2023-04-22T09:10:34.279Z,4.53
2023-04-22T09:13:24.352Z,5.82
2023-04-22T09:16:13.116Z,4.65
2023-04-22T09:19:02.306Z,5.95
2023-04-22T09:21:54.304Z,7.57
2023-04-22T09:24:45.912Z,6.63
2023-04-22T09:27:37.237Z,5.97
2023-04-22T09:30:28.239Z,4.80
2023-04-22T09:33:17.740Z,5.25
2023-04-22T09:36:11.161Z,5.78
2023-04-22T09:39:05.253Z,4.93
2023-04-22T09:41:56.757Z,7.63
2023-04-22T09:44:47.017Z,7.78
2023-04-22T09:47:37.672Z,7.85
2023-04-22T09:50:28.398Z,6.90
2023-04-22T09:53:19.537Z,4.88
2023-04-22T09:56:09.891Z,9.25
2023-04-22T09:58:58.742Z,5.30
2023-04-22T10:01:47.552Z,4.95
2023-04-22T10:04:36.348Z,8.32
2023-04-22T10:07:29.012Z,5.47
2023-04-22T10:10:17.832Z,8.90
2023-04-22T10:13:08.881Z,7.38
2023-04-22T10:15:58.865Z,6.88
2023-04-22T10:18:48.867Z,6.38
2023-04-22T10:21:39.028Z,4.90
2023-04-22T10:24:29.675Z,3.65
2023-04-22T10:27:22.917Z,7.28
2023-04-22T10:30:28.854Z,6.10
2023-04-22T10:33:40.044Z,11.93
2023-04-22T10:36:28.779Z,5.20
2023-04-22T10:39:19.303Z,6.10
2023-04-22T10:42:12.852Z,11.27
2023-04-22T10:45:03.763Z,4.82
2023-04-22T10:47:54.641Z,5.35
2023-04-22T10:50:43.968Z,8.07
2023-04-22T10:53:43.961Z,5.70
2023-04-22T10:56:32.705Z,4.55
2023-04-22T10:59:21.884Z,6.35
2023-04-22T11:02:12.851Z,4.45
2023-04-22T11:05:26.315Z,5.57
2023-04-22T11:08:20.652Z,6.25
2023-04-22T11:11:13.791Z,6.82
2023-04-22T11:14:03.261Z,9.63
2023-04-22T11:16:56.246Z,5.15
2023-04-22T11:19:44.851Z,5.65
2023-04-22T11:22:41.389Z,6.20
2023-04-22T11:25:30.281Z,6.38
2023-04-22T11:28:22.960Z,6.97
2023-04-22T11:31:14.656Z,6.65
2023-04-22T11:34:03.780Z,9.25
2023-04-22T11:36:53.502Z,8.55
2023-04-22T11:40:01.606Z,4.60
2023-04-22T11:42:54.101Z,8.32
2023-04-22T11:45:43.138Z,5.63
2023-04-22T11:48:32.278Z,7.32
2023-04-22T11:51:24.675Z,10.20
2023-04-22T11:54:13.415Z,5.25
2023-04-22T11:57:05.597Z,7.68
2023-04-22T12:00:00.350Z,8.75
2023-04-22T12:02:59.992Z,7.68
2023-04-22T12:05:54.434Z,5.80
2023-04-22T12:08:44.989Z,7.05
2023-04-22T12:11:34.542Z,6.93
2023-04-22T12:14:32.595Z,5.70
2023-04-22T12:17:25.251Z,7.03
2023-04-22T12:20:14.900Z,5.00
2023-04-22T12:23:04.276Z,6.05
2023-04-22T12:25:53.798Z,4.78
2023-04-22T12:28:46.628Z,5.35
2023-04-22T12:31:38.340Z,6.22
2023-04-22T12:34:27.115Z,7.07
2023-04-22T12:37:16.370Z,4.18
2023-04-22T12:40:06.774Z,7.65
2023-04-22T12:42:55.403Z,6.50
2023-04-22T12:45:44.158Z,6.07
2023-04-22T12:48:36.108Z,5.80
2023-04-22T12:51:24.836Z,7.82
2023-04-22T12:54:13.514Z,7.78
2023-04-22T12:57:03.010Z,4.65
2023-04-22T12:59:52.126Z,4.53
2023-04-22T13:02:40.863Z,5.72
2023-04-22T13:05:31.282Z,4.13
2023-04-22T13:08:19.941Z,4.55
2023-04-22T13:11:09.009Z,4.13
2023-04-22T13:13:57.920Z,6.32
2023-04-22T13:16:46.926Z,4.57
2023-04-22T13:19:35.682Z,5.07
2023-04-22T13:22:25.847Z,6.18
2023-04-22T13:25:14.755Z,9.07
2023-04-22T13:28:03.581Z,7.65
2023-04-22T13:30:53.572Z,4.70
2023-04-22T13:33:44.182Z,7.47
2023-04-22T13:36:33.134Z,7.72
2023-04-22T13:39:23.526Z,6.95
2023-04-22T13:42:12.660Z,6.15
2023-04-22T13:45:01.325Z,5.45
2023-04-22T13:47:50.023Z,7.05
2023-04-22T13:50:43.279Z,7.25
2023-04-22T13:53:34.147Z,7.32
2023-04-22T13:56:24.970Z,11.18
2023-04-22T13:59:13.697Z,6.07
2023-04-22T14:02:02.320Z,6.22
2023-04-22T14:04:54.346Z,6.15
2023-04-22T14:07:43.025Z,6.45
2023-04-22T14:10:32.007Z,8.63
2023-04-22T14:13:25.914Z,5.50
2023-04-22T14:16:14.607Z,7.95
2023-04-22T14:19:04.465Z,7.35
2023-04-22T14:21:54.382Z,6.32
2023-04-22T14:24:43.442Z,8.90
2023-04-22T14:27:32.976Z,7.53
2023-04-22T14:30:24.393Z,9.32
2023-04-22T14:33:13.438Z,8.13
2023-04-22T14:36:02.388Z,6.18
2023-04-22T14:38:54.572Z,8.45
2023-04-22T14:41:43.759Z,7.65
2023-04-22T14:44:32.852Z,9.30
2023-04-22T14:47:23.810Z,8.00
2023-04-22T14:50:12.913Z,10.52
2023-04-22T14:53:02.348Z,9.65
2023-04-22T14:55:53.490Z,7.57
2023-04-22T14:58:42.484Z,6.68
2023-04-22T15:01:31.518Z,7.75
2023-04-22T15:04:22.053Z,6.55
2023-04-22T15:07:11.129Z,6.82
2023-04-22T15:10:00.277Z,6.90
2023-04-22T15:12:49.472Z,6.63
2023-04-22T15:15:38.486Z,10.48
2023-04-22T15:18:28.227Z,5.88
2023-04-22T15:21:18.907Z,5.63
2023-04-22T15:24:07.995Z,8.65
2023-04-22T15:26:57.318Z,4.97
2023-04-22T15:29:47.480Z,8.27
2023-04-22T15:32:39.387Z,4.78
2023-04-22T15:35:28.472Z,7.03
2023-04-22T15:38:19.080Z,4.70
2023-04-22T15:41:07.826Z,5.45
2023-04-22T15:43:56.698Z,5.63
2023-04-22T15:46:46.529Z,6.38
2023-04-22T15:49:36.695Z,9.63
2023-04-22T15:52:25.622Z,6.82
2023-04-22T15:55:16.068Z,4.68
2023-04-22T15:58:05.023Z,5.43
2023-04-22T16:00:55.110Z,7.50
2023-04-22T16:03:45.507Z,7.03
2023-04-22T16:06:34.425Z,6.50
2023-04-22T16:09:23.067Z,8.77
2023-04-22T16:12:14.154Z,5.15
2023-04-22T16:15:03.928Z,6.57
2023-04-22T16:17:55.933Z,7.72
2023-04-22T16:20:45.021Z,6.88
2023-04-22T16:23:34.804Z,7.22
2023-04-22T16:26:23.579Z,6.60
2023-04-22T16:29:13.615Z,5.70
2023-04-22T16:32:02.680Z,5.38
2023-04-22T16:34:53.895Z,6.40
2023-04-22T16:37:43.166Z,5.88
2023-04-22T16:40:32.453Z,3.95
2023-04-22T16:43:21.809Z,6.13
2023-04-22T16:46:12.299Z,5.90
2023-04-22T16:49:01.080Z,6.55
2023-04-22T16:51:49.970Z,5.55
2023-04-22T16:54:40.869Z,4.47
2023-04-22T16:57:29.993Z,7.45
2023-04-22T17:00:19.276Z,6.70
2023-04-22T17:03:12.089Z,4.82
2023-04-22T17:06:01.081Z,17.65
2023-04-22T17:08:52.315Z,34.92
2023-04-22T17:11:41.067Z,20.85
2023-04-22T17:14:29.823Z,10.10
2023-04-22T17:17:18.512Z,8.88
2023-04-22T17:20:09.661Z,7.78
2023-04-22T17:22:59.252Z,7.53
2023-04-22T17:25:52.396Z,7.35
2023-04-22T17:28:41.119Z,7.90
2023-04-22T17:31:31.246Z,9.73
2023-04-22T17:34:20.231Z,7.95
2023-04-22T17:37:10.301Z,7.85
2023-04-22T17:39:59.070Z,6.25
2023-04-22T17:42:48.090Z,10.65
2023-04-22T17:45:36.821Z,8.93
2023-04-22T17:48:25.407Z,12.20
2023-04-22T17:51:14.314Z,7.35
2023-04-22T17:54:05.321Z,11.82
2023-04-22T17:56:54.308Z,8.30
2023-04-22T17:59:43.367Z,8.32
2023-04-22T18:02:32.649Z,9.93
2023-04-22T18:05:21.771Z,7.40
2023-04-22T18:08:11.040Z,13.10
2023-04-22T18:11:02.176Z,10.90
2023-04-22T18:13:51.089Z,8.60
2023-04-22T18:16:39.902Z,6.47
2023-04-22T18:19:28.610Z,6.53
2023-04-22T18:22:17.795Z,10.88
2023-04-22T18:25:07.537Z,10.23
2023-04-22T18:27:57.633Z,6.68
2023-04-22T18:30:46.338Z,9.95
2023-04-22T18:33:35.577Z,11.02
2023-04-22T18:36:24.305Z,11.43
2023-04-22T18:39:12.959Z,7.50
2023-04-22T18:42:02.457Z,11.85
2023-04-22T18:44:55.684Z,10.90
2023-04-22T18:47:47.404Z,15.98
2023-04-22T18:50:36.498Z,18.55
2023-04-22T18:53:25.293Z,13.75
2023-04-22T18:56:14.242Z,15.63
2023-04-22T18:59:03.246Z,13.80
2023-04-22T19:01:56.054Z,16.80
2023-04-22T19:04:45.115Z,16.25
2023-04-22T19:07:34.153Z,15.07
2023-04-22T19:10:23.213Z,22.70
2023-04-22T19:13:18.825Z,14.43
2023-04-22T19:16:17.902Z,16.60
2023-04-22T19:19:08.185Z,18.00
2023-04-22T19:21:56.940Z,13.63
2023-04-22T19:24:45.999Z,16.73
2023-04-22T19:27:34.847Z,20.48
2023-04-22T19:30:26.601Z,17.38
2023-04-22T19:33:16.165Z,17.88
2023-04-22T19:36:07.239Z,22.23
2023-04-22T19:38:55.878Z,14.93
2023-04-22T19:41:44.583Z,15.00
2023-04-22T19:44:33.725Z,13.63
2023-04-22T19:47:22.936Z,13.90
2023-04-22T19:50:12.513Z,18.17
2023-04-22T19:53:04.626Z,16.63
2023-04-22T19:55:56.915Z,12.13
2023-04-22T19:58:46.396Z,15.98
2023-04-22T20:01:36.019Z,13.10
2023-04-22T20:04:26.158Z,13.25
2023-04-22T20:07:16.493Z,15.27
2023-04-22T20:10:08.752Z,17.63
2023-04-22T20:12:58.101Z,15.68
2023-04-22T20:15:47.747Z,18.60
2023-04-22T20:18:37.157Z,17.42
2023-04-22T20:21:26.246Z,25.23
2023-04-22T20:24:19.654Z,20.45
2023-04-22T20:27:10.477Z,18.38
2023-04-22T20:30:00.131Z,24.50
2023-04-22T20:32:49.253Z,14.98
2023-04-22T20:35:40.386Z,29.30
2023-04-22T20:38:31.071Z,17.20
2023-04-22T20:41:20.954Z,22.73
2023-04-22T20:44:10.946Z,19.35
2023-04-22T20:46:59.669Z,23.15
2023-04-22T20:49:48.641Z,27.65
2023-04-22T20:52:37.782Z,22.20
2023-04-22T20:55:26.479Z,18.50
2023-04-22T20:58:15.760Z,28.05
2023-04-22T21:01:05.942Z,24.30
2023-04-22T21:03:57.712Z,17.60
2023-04-22T21:06:50.210Z,21.25
2023-04-22T21:09:40.572Z,20.75
2023-04-22T21:12:30.078Z,21.77
2023-04-22T21:15:19.708Z,20.90
2023-04-22T21:18:10.641Z,19.40
2023-04-22T21:21:00.110Z,24.23
2023-04-22T21:23:49.856Z,18.55
2023-04-22T21:26:40.401Z,18.77
2023-04-22T21:29:30.029Z,18.95
2023-04-22T21:32:20.533Z,19.73
2023-04-22T21:35:11.388Z,24.52
2023-04-22T21:38:01.257Z,18.50
2023-04-22T21:40:49.911Z,17.35
2023-04-22T21:43:38.593Z,20.25
2023-04-22T21:46:27.426Z,18.88
2023-04-22T21:49:16.344Z,23.17
2023-04-22T21:52:06.795Z,20.95
2023-04-22T21:54:55.666Z,16.15
2023-04-22T21:57:55.681Z,17.17
2023-04-22T22:00:45.102Z,17.23
2023-04-22T22:03:35.451Z,18.48
2023-04-22T22:06:24.231Z,15.43
2023-04-22T22:09:15.692Z,18.40
2023-04-22T22:12:04.416Z,20.58
2023-04-22T22:14:53.291Z,19.50
2023-04-22T22:17:42.294Z,21.05
2023-04-22T22:20:32.167Z,20.85
2023-04-22T22:23:21.637Z,21.40
2023-04-22T22:26:11.796Z,20.83
2023-04-22T22:29:00.528Z,17.58
2023-04-22T22:31:53.562Z,18.73
2023-04-22T22:34:44.139Z,19.90
2023-04-22T22:37:34.191Z,19.08
2023-04-22T22:40:23.041Z,20.83
2023-04-22T22:43:13.633Z,17.48
2023-04-22T22:46:02.658Z,23.85
2023-04-22T22:48:51.387Z,18.08
2023-04-22T22:51:40.192Z,19.90
2023-04-22T22:54:29.003Z,17.58
2023-04-22T22:57:17.832Z,20.48
2023-04-22T23:00:11.986Z,22.88
2023-04-22T23:03:01.067Z,19.15
2023-04-22T23:05:50.062Z,19.45
2023-04-22T23:08:38.724Z,21.38
2023-04-22T23:11:31.410Z,21.55
2023-04-22T23:14:20.542Z,27.00
2023-04-22T23:17:17.158Z,27.35
2023-04-22T23:20:08.327Z,28.35
2023-04-22T23:22:58.399Z,29.02
2023-04-22T23:25:47.973Z,28.98
2023-04-22T23:28:37.246Z,32.50
2023-04-22T23:31:26.897Z,29.63
2023-04-22T23:34:20.855Z,32.75
2023-04-22T23:37:12.121Z,31.00
2023-04-22T23:40:01.002Z,27.35
2023-04-22T23:42:49.894Z,32.40
2023-04-22T23:45:38.602Z,30.27
2023-04-22T23:48:27.658Z,29.35
2023-04-22T23:51:17.860Z,29.30
2023-04-22T23:54:07.319Z,30.75
2023-04-22T23:57:01.155Z,34.70
2023-04-22T23:59:50.708Z,31.90
